createdAt,value
2019-04-28T00:01:43.175Z,95.90
2019-04-28T00:04:12.098Z,95.80
2019-04-28T00:06:41.780Z,95.80
2019-04-28T00:09:11.454Z,95.80
2019-04-28T00:11:41.743Z,95.70
2019-04-28T00:14:11.978Z,95.90
2019-04-28T00:16:41.305Z,95.90
2019-04-28T00:19:11.015Z,95.80
2019-04-28T00:21:46.889Z,95.90
2019-04-28T00:24:25.827Z,95.80
2019-04-28T00:26:58.552Z,95.70
2019-04-28T00:29:37.724Z,95.70
2019-04-28T00:31:57.503Z,95.70
2019-04-28T00:34:26.052Z,95.50
2019-04-28T00:36:56.243Z,95.70
2019-04-28T00:39:24.893Z,95.70
2019-04-28T00:41:53.508Z,96.00
2019-04-28T00:44:23.506Z,95.80
2019-04-28T00:46:52.163Z,95.90
2019-04-28T00:49:23.304Z,95.80
2019-04-28T00:51:52.027Z,95.80
2019-04-28T00:54:21.856Z,96.00
2019-04-28T00:56:51.730Z,95.90
2019-04-28T00:59:21.679Z,95.80
2019-04-28T01:01:52.168Z,95.90
2019-04-28T01:04:21.930Z,95.90
2019-04-28T01:06:51.992Z,96.00
2019-04-28T01:09:21.812Z,95.80
2019-04-28T01:11:51.166Z,95.80
2019-04-28T01:14:21.433Z,95.70
2019-04-28T01:16:51.742Z,95.60
2019-04-28T01:19:22.009Z,95.70
2019-04-28T01:22:10.504Z,95.90
2019-04-28T01:24:40.186Z,95.80
2019-04-28T01:27:30.460Z,95.90
2019-04-28T01:30:07.833Z,95.80
2019-04-28T01:32:50.586Z,95.90
2019-04-28T01:35:20.893Z,96.10
2019-04-28T01:37:50.514Z,96.00
2019-04-28T01:40:20.529Z,96.10
2019-04-28T01:42:49.972Z,96.10
2019-04-28T01:45:20.575Z,95.90
2019-04-28T01:47:50.430Z,96.00
2019-04-28T01:50:20.499Z,96.10
2019-04-28T01:52:49.944Z,96.00
2019-04-28T01:55:20.027Z,96.00
2019-04-28T01:57:49.770Z,96.20
2019-04-28T02:00:25.079Z,96.30
2019-04-28T02:02:50.543Z,96.40
2019-04-28T02:05:19.754Z,96.40
2019-04-28T02:07:50.528Z,96.40
2019-04-28T02:10:21.521Z,96.50
2019-04-28T02:12:50.350Z,96.50
2019-04-28T02:15:20.168Z,96.60
2019-04-28T02:17:51.312Z,96.60
2019-04-28T02:20:20.959Z,96.60
2019-04-28T02:22:57.198Z,96.60
2019-04-28T02:25:25.742Z,96.60
2019-04-28T02:27:57.072Z,96.80
2019-04-28T02:30:40.999Z,96.80
2019-04-28T02:32:54.800Z,97.10
2019-04-28T02:35:23.352Z,96.70
2019-04-28T02:37:51.984Z,96.80
2019-04-28T02:40:20.886Z,96.80
2019-04-28T02:42:51.772Z,96.80
2019-04-28T02:45:21.831Z,96.90
2019-04-28T02:47:52.435Z,96.90
2019-04-28T02:50:25.676Z,96.90
2019-04-28T02:53:01.341Z,97.00
2019-04-28T02:55:31.374Z,96.90
2019-04-28T02:58:01.399Z,96.90
2019-04-28T03:00:31.756Z,96.90
2019-04-28T03:03:01.459Z,97.00
2019-04-28T03:05:30.276Z,96.90
2019-04-28T03:08:01.179Z,96.90
2019-04-28T03:10:31.147Z,96.90
2019-04-28T03:13:01.015Z,97.00
2019-04-28T03:15:30.357Z,97.10
2019-04-28T03:18:01.701Z,97.00
2019-04-28T03:20:30.768Z,97.00
2019-04-28T03:23:00.971Z,96.90
2019-04-28T03:25:47.283Z,97.00
2019-04-28T03:28:23.065Z,97.10
2019-04-28T03:30:54.392Z,97.10
2019-04-28T03:33:26.163Z,97.10
2019-04-28T03:35:55.143Z,97.10
2019-04-28T03:38:27.088Z,97.10
2019-04-28T03:40:55.651Z,97.20
2019-04-28T03:43:24.342Z,97.30
2019-04-28T03:45:57.426Z,97.20
2019-04-28T03:48:26.049Z,97.10
2019-04-28T03:50:54.627Z,97.00
2019-04-28T03:53:23.189Z,97.10
2019-04-28T03:55:51.753Z,97.00
2019-04-28T03:58:23.647Z,97.40
2019-04-28T04:00:50.875Z,97.30
2019-04-28T04:03:20.973Z,97.30
2019-04-28T04:05:50.894Z,97.70
2019-04-28T04:08:20.881Z,97.30
2019-04-28T04:10:51.531Z,97.30
2019-04-28T04:13:24.565Z,97.30
2019-04-28T04:16:10.386Z,97.30
2019-04-28T04:18:43.761Z,97.40
2019-04-28T04:21:12.447Z,97.40
2019-04-28T04:23:41.472Z,97.40
2019-04-28T04:26:11.737Z,97.30
2019-04-28T04:28:41.598Z,97.30
2019-04-28T04:31:10.710Z,97.30
2019-04-28T04:33:41.078Z,97.40
2019-04-28T04:36:11.524Z,97.20
2019-04-28T04:38:43.364Z,97.30
2019-04-28T04:41:11.185Z,97.30
2019-04-28T04:43:41.551Z,97.20
2019-04-28T04:49:13.430Z,97.20
2019-04-28T04:51:43.864Z,97.40
2019-04-28T04:54:12.220Z,97.20
2019-04-28T04:56:40.775Z,97.20
2019-04-28T04:59:10.218Z,97.20
2019-04-28T05:01:43.415Z,97.20
2019-04-28T05:04:29.871Z,97.20
2019-04-28T05:06:59.685Z,97.20
2019-04-28T05:09:29.542Z,97.30
2019-04-28T05:11:59.746Z,97.20
2019-04-28T05:14:29.938Z,96.90
2019-04-28T05:17:00.662Z,97.00
2019-04-28T05:19:29.844Z,96.70
2019-04-28T05:22:00.066Z,97.00
2019-04-28T05:24:30.485Z,96.80
2019-04-28T05:26:59.669Z,96.80
2019-04-28T05:29:30.425Z,96.60
2019-04-28T05:31:59.822Z,96.30
2019-04-28T05:34:29.651Z,95.90
2019-04-28T05:37:00.546Z,96.10
2019-04-28T05:39:29.794Z,96.00
2019-04-28T05:42:00.639Z,95.80
2019-04-28T05:44:29.930Z,95.60
2019-04-28T05:46:59.580Z,95.60
2019-04-28T05:49:35.495Z,95.60
2019-04-28T05:52:21.960Z,95.40
2019-04-28T05:54:52.175Z,95.20
2019-04-28T05:57:37.134Z,95.60
2019-04-28T06:00:16.913Z,95.00
2019-04-28T06:02:55.929Z,95.10
2019-04-28T06:05:17.326Z,95.20
2019-04-28T06:07:56.430Z,94.90
2019-04-28T06:10:25.003Z,95.30
2019-04-28T06:12:53.569Z,95.20
2019-04-28T06:15:22.203Z,94.90
2019-04-28T06:17:50.771Z,94.90
2019-04-28T06:20:20.134Z,94.70
2019-04-28T06:22:49.023Z,94.50
2019-04-28T06:25:17.617Z,94.50
2019-04-28T06:27:46.161Z,94.60
2019-04-28T06:30:15.698Z,94.60
2019-04-28T06:32:44.253Z,94.40
2019-04-28T06:35:12.881Z,94.50
2019-04-28T06:37:41.512Z,94.70
2019-04-28T06:40:10.284Z,94.60
2019-04-28T06:42:38.854Z,94.40
2019-04-28T06:45:07.767Z,94.60
2019-04-28T06:47:36.323Z,94.80
2019-04-28T06:50:06.833Z,94.80
2019-04-28T06:52:35.445Z,94.70
2019-04-28T06:55:05.840Z,94.40
2019-04-28T06:57:34.394Z,94.60
2019-04-28T07:00:03.449Z,94.40
2019-04-28T07:02:51.348Z,94.60
2019-04-28T07:05:19.966Z,94.60
2019-04-28T07:07:48.592Z,94.60
2019-04-28T07:10:17.151Z,94.50
2019-04-28T07:12:45.753Z,94.40
2019-04-28T07:15:14.404Z,94.20
2019-04-28T07:17:42.974Z,94.60
2019-04-28T07:20:29.979Z,94.60
2019-04-28T07:22:58.636Z,94.90
2019-04-28T07:25:27.172Z,94.80
2019-04-28T07:27:55.767Z,94.70
2019-04-28T07:30:24.456Z,94.70
2019-04-28T07:32:53.032Z,94.80
2019-04-28T07:35:21.721Z,94.40
2019-04-28T07:37:50.274Z,94.50
2019-04-28T07:40:18.914Z,94.50
2019-04-28T07:42:47.624Z,94.90
2019-04-28T07:45:16.440Z,94.50
2019-04-28T07:47:45.072Z,94.50
2019-04-28T07:50:14.447Z,94.30
2019-04-28T07:52:44.715Z,94.30
2019-04-28T07:55:13.406Z,94.70
2019-04-28T07:57:42.006Z,94.70
2019-04-28T08:00:13.459Z,94.80
2019-04-28T08:02:42.018Z,94.90
2019-04-28T08:05:10.854Z,94.90
2019-04-28T08:07:39.437Z,94.80
2019-04-28T08:10:08.683Z,94.60
2019-04-28T08:12:37.287Z,95.10
2019-04-28T08:15:06.615Z,94.40
2019-04-28T08:17:35.172Z,94.60
2019-04-28T08:20:05.780Z,94.70
2019-04-28T08:22:34.490Z,94.80
2019-04-28T08:25:04.000Z,95.00
2019-04-28T08:27:33.174Z,94.90
2019-04-28T08:30:01.784Z,94.40
2019-04-28T08:32:31.977Z,94.30
2019-04-28T08:35:00.666Z,94.60
2019-04-28T08:37:29.237Z,94.50
2019-04-28T08:39:57.796Z,94.50
2019-04-28T08:42:26.441Z,94.70
2019-04-28T08:44:55.006Z,94.70
2019-04-28T08:47:23.636Z,94.50
2019-04-28T08:49:52.235Z,95.00
2019-04-28T08:52:20.814Z,94.90
2019-04-28T08:54:49.434Z,94.70
2019-04-28T08:57:18.258Z,94.40
2019-04-28T08:59:46.827Z,94.50
2019-04-28T09:02:15.395Z,94.40
2019-04-28T09:04:43.977Z,94.20
2019-04-28T09:07:12.622Z,94.30
2019-04-28T09:09:41.250Z,94.20
2019-04-28T09:12:10.445Z,94.10
2019-04-28T09:14:39.021Z,94.30
2019-04-28T09:17:07.592Z,94.10
2019-04-28T09:19:36.318Z,94.50
2019-04-28T09:22:05.714Z,93.80
2019-04-28T09:24:34.354Z,93.70
2019-04-28T09:27:02.998Z,93.40
2019-04-28T09:29:31.563Z,93.20
2019-04-28T09:32:00.184Z,93.50
2019-04-28T09:34:29.575Z,93.40
2019-04-28T09:36:58.145Z,93.60
2019-04-28T09:39:43.694Z,93.70
2019-04-28T09:42:31.786Z,93.40
2019-04-28T09:45:03.192Z,93.60
2019-04-28T09:47:31.771Z,93.10
2019-04-28T09:50:00.416Z,93.60
2019-04-28T09:52:29.059Z,93.60
2019-04-28T09:54:58.380Z,93.60
2019-04-28T09:57:26.939Z,93.50
2019-04-28T09:59:56.169Z,93.60
2019-04-28T10:02:24.815Z,93.50
2019-04-28T10:04:53.378Z,94.00
2019-04-28T10:07:22.330Z,93.70
2019-04-28T10:09:50.886Z,93.60
2019-04-28T10:12:26.893Z,93.60
2019-04-28T10:14:49.966Z,94.00
2019-04-28T10:17:47.996Z,94.10
2019-04-28T10:20:18.975Z,94.60
2019-04-28T10:22:47.608Z,94.30
2019-04-28T10:25:17.510Z,94.20
2019-04-28T10:27:46.793Z,93.80
2019-04-28T10:30:15.683Z,94.00
2019-04-28T10:32:44.308Z,94.10
2019-04-28T10:35:15.032Z,94.30
2019-04-28T10:37:45.581Z,94.30
2019-04-28T10:40:24.250Z,94.30
2019-04-28T10:42:52.806Z,94.20
2019-04-28T10:45:23.537Z,94.50
2019-04-28T10:47:52.101Z,94.40
2019-04-28T10:50:20.780Z,94.40
2019-04-28T10:52:49.345Z,94.30
2019-04-28T10:55:17.918Z,94.40
2019-04-28T10:57:46.531Z,94.50
2019-04-28T11:00:16.869Z,94.60
2019-04-28T11:02:45.460Z,94.30
2019-04-28T11:05:42.218Z,94.70
2019-04-28T11:08:13.370Z,94.50
2019-04-28T11:10:41.954Z,94.30
2019-04-28T11:13:10.956Z,94.20
2019-04-28T11:15:39.536Z,94.30
2019-04-28T11:18:10.166Z,94.60
2019-04-28T11:20:38.762Z,94.50
2019-04-28T11:23:07.489Z,94.80
2019-04-28T11:25:36.590Z,94.90
2019-04-28T11:28:05.996Z,95.10
2019-04-28T11:30:35.135Z,95.10
2019-04-28T11:33:08.226Z,95.00
2019-04-28T11:35:39.292Z,95.30
2019-04-28T11:38:07.928Z,95.30
2019-04-28T11:40:36.469Z,95.30
2019-04-28T11:43:05.127Z,95.50
2019-04-28T11:45:33.679Z,95.50
2019-04-28T11:48:02.316Z,95.50
2019-04-28T11:50:30.928Z,95.60
2019-04-28T11:52:59.508Z,95.50
2019-04-28T11:55:28.127Z,95.70
2019-04-28T11:57:57.126Z,95.60
2019-04-28T12:00:29.506Z,95.60
2019-04-28T12:02:57.850Z,95.50
2019-04-28T12:05:34.234Z,95.30
2019-04-28T12:07:58.361Z,95.50
2019-04-28T12:10:34.334Z,95.40
2019-04-28T12:13:10.410Z,95.30
2019-04-28T12:15:50.948Z,95.10
2019-04-28T12:18:37.565Z,95.40
2019-04-28T12:21:06.704Z,95.30
2019-04-28T12:23:35.267Z,95.10
2019-04-28T12:26:03.891Z,95.10
2019-04-28T12:28:32.654Z,95.00
2019-04-28T12:31:03.208Z,94.80
2019-04-28T12:33:31.497Z,94.60
2019-04-28T12:36:01.039Z,93.90
2019-04-28T12:38:29.690Z,93.10
2019-04-28T12:40:58.513Z,92.70
2019-04-28T12:43:27.627Z,91.80
2019-04-28T12:45:56.182Z,89.70
2019-04-28T12:48:24.761Z,85.40
2019-04-28T12:50:54.474Z,82.10
2019-04-28T12:53:23.915Z,81.70
2019-04-28T12:55:52.617Z,77.70
2019-04-28T12:58:21.196Z,74.20
2019-04-28T13:01:03.411Z,72.90
2019-04-28T13:03:33.838Z,73.80
2019-04-28T13:06:05.941Z,66.90
2019-04-28T13:08:34.248Z,67.20
2019-04-28T13:11:02.894Z,67.50
2019-04-28T13:13:31.499Z,63.70
2019-04-28T13:16:00.456Z,62.80
2019-04-28T13:18:29.034Z,59.50
2019-04-28T13:20:59.108Z,60.80
2019-04-28T13:23:28.243Z,61.80
2019-04-28T13:25:56.833Z,59.90
2019-04-28T13:28:26.234Z,60.70
2019-04-28T13:30:54.806Z,61.70
2019-04-28T13:33:23.363Z,60.30
2019-04-28T13:35:52.060Z,59.80
2019-04-28T13:38:20.643Z,59.00
2019-04-28T13:40:49.295Z,59.20
2019-04-28T13:43:17.911Z,62.30
2019-04-28T13:45:46.613Z,62.40
2019-04-28T13:48:15.174Z,63.40
2019-04-28T13:50:43.759Z,63.00
2019-04-28T13:53:12.318Z,66.20
2019-04-28T13:55:48.372Z,66.70
2019-04-28T13:58:18.705Z,68.00
2019-04-28T14:01:04.838Z,69.80
2019-04-28T14:03:37.841Z,72.70
2019-04-28T14:06:09.723Z,74.30
2019-04-28T14:08:38.312Z,73.00
2019-04-28T14:11:06.923Z,74.10
2019-04-28T14:13:35.562Z,72.80
2019-04-28T14:16:04.177Z,71.70
2019-04-28T14:18:32.773Z,73.80
2019-04-28T14:21:01.450Z,74.90
2019-04-28T14:23:30.006Z,76.80
2019-04-28T14:25:58.554Z,79.10
2019-04-28T14:28:27.154Z,77.50
2019-04-28T14:30:55.726Z,76.30
2019-04-28T14:33:24.353Z,76.70
2019-04-28T14:35:52.963Z,76.80
2019-04-28T14:38:21.517Z,76.80
2019-04-28T14:40:50.136Z,76.50
2019-04-28T14:43:18.791Z,77.60
2019-04-28T14:45:47.352Z,75.90
2019-04-28T14:48:15.995Z,76.80
2019-04-28T14:50:44.568Z,76.30
2019-04-28T14:53:13.214Z,77.90
2019-04-28T14:55:41.780Z,76.40
2019-04-28T14:58:10.448Z,77.90
2019-04-28T15:00:40.905Z,76.30
2019-04-28T15:03:11.653Z,74.70
2019-04-28T15:05:58.591Z,73.80
2019-04-28T15:08:40.807Z,75.40
2019-04-28T15:11:11.098Z,76.30
2019-04-28T15:13:39.668Z,76.30
2019-04-28T15:16:08.239Z,76.30
2019-04-28T15:18:36.870Z,76.50
2019-04-28T15:21:05.566Z,76.90
2019-04-28T15:23:34.142Z,77.30
2019-04-28T15:26:02.774Z,78.10
2019-04-28T15:28:31.329Z,76.90
2019-04-28T15:30:59.964Z,77.00
2019-04-28T15:33:29.343Z,76.00
2019-04-28T15:35:57.895Z,75.30
2019-04-28T15:38:26.490Z,75.80
2019-04-28T15:40:55.242Z,76.30
2019-04-28T15:43:23.804Z,75.70
2019-04-28T15:45:52.446Z,74.60
2019-04-28T15:48:21.111Z,74.00
2019-04-28T15:50:49.746Z,74.40
2019-04-28T15:53:18.293Z,75.50
2019-04-28T15:56:00.526Z,73.70
2019-04-28T15:58:29.555Z,74.00
2019-04-28T16:00:58.702Z,73.60
2019-04-28T16:03:27.926Z,73.50
2019-04-28T16:06:06.224Z,74.80
2019-04-28T16:08:34.968Z,74.10
2019-04-28T16:11:04.167Z,74.20
2019-04-28T16:13:32.731Z,73.80
2019-04-28T16:16:01.390Z,74.80
2019-04-28T16:18:30.007Z,75.60
2019-04-28T16:20:58.847Z,75.80
2019-04-28T16:23:27.473Z,76.40
2019-04-28T16:25:56.055Z,77.10
2019-04-28T16:28:24.675Z,78.00
2019-04-28T16:30:53.239Z,78.10
2019-04-28T16:33:21.872Z,79.70
2019-04-28T16:35:50.413Z,78.60
2019-04-28T16:38:18.961Z,79.70
2019-04-28T16:40:54.000Z,79.60
2019-04-28T16:43:28.511Z,79.60
2019-04-28T16:45:57.146Z,79.50
2019-04-28T16:48:25.712Z,80.40
2019-04-28T16:50:54.277Z,79.80
2019-04-28T16:53:23.176Z,80.10
2019-04-28T16:55:53.369Z,80.00
2019-04-28T16:58:35.473Z,79.50
2019-04-28T17:01:21.997Z,80.20
2019-04-28T17:03:50.835Z,80.00
2019-04-28T17:06:19.417Z,80.10
2019-04-28T17:08:48.013Z,80.60
2019-04-28T17:11:16.623Z,81.00
2019-04-28T17:13:45.203Z,81.70
2019-04-28T17:16:13.794Z,81.80
2019-04-28T17:18:42.418Z,81.90
2019-04-28T17:21:10.994Z,82.20
2019-04-28T17:23:39.571Z,83.00
2019-04-28T17:26:11.240Z,84.30
2019-04-28T17:28:38.818Z,85.10
2019-04-28T17:31:08.035Z,85.30
2019-04-28T17:33:37.258Z,85.70
2019-04-28T17:36:05.840Z,85.40
2019-04-28T17:38:34.485Z,85.50
2019-04-28T17:41:03.198Z,85.50
2019-04-28T17:43:31.764Z,86.50
2019-04-28T17:46:00.358Z,86.90
2019-04-28T17:48:33.487Z,86.20
2019-04-28T17:51:02.082Z,85.80
2019-04-28T17:53:30.643Z,86.40
2019-04-28T17:55:59.745Z,87.20
2019-04-28T17:58:28.322Z,86.00
2019-04-28T18:00:58.594Z,86.30
2019-04-28T18:03:34.879Z,87.90
2019-04-28T18:06:21.394Z,87.80
2019-04-28T18:08:50.302Z,86.90
2019-04-28T18:11:19.134Z,86.50
2019-04-28T18:13:47.695Z,87.00
2019-04-28T18:16:34.254Z,87.50
2019-04-28T18:19:07.471Z,87.20
2019-04-28T18:21:36.762Z,87.50
2019-04-28T18:24:05.398Z,87.30
2019-04-28T18:26:33.955Z,87.40
2019-04-28T18:29:02.755Z,86.50
2019-04-28T18:31:44.707Z,86.10
2019-04-28T18:34:17.707Z,84.90
2019-04-28T18:37:03.963Z,85.40
2019-04-28T18:39:43.002Z,86.40
2019-04-28T18:42:31.115Z,82.90
2019-04-28T18:44:59.706Z,83.20
2019-04-28T18:47:28.282Z,83.00
2019-04-28T18:49:56.846Z,83.70
2019-04-28T18:52:27.107Z,82.40
2019-04-28T18:54:55.913Z,82.40
2019-04-28T18:57:24.463Z,83.70
2019-04-28T18:59:53.121Z,83.40
2019-04-28T19:02:29.053Z,83.60
2019-04-28T19:04:57.698Z,84.30
2019-04-28T19:07:33.772Z,84.60
2019-04-28T19:10:07.020Z,85.90
2019-04-28T19:12:37.216Z,85.90
2019-04-28T19:15:24.004Z,86.00
2019-04-28T19:17:54.305Z,87.10
2019-04-28T19:20:22.877Z,86.50
2019-04-28T19:22:51.510Z,86.90
2019-04-28T19:25:20.076Z,87.10
2019-04-28T19:27:48.703Z,87.20
2019-04-28T19:30:17.350Z,88.00
2019-04-28T19:32:46.264Z,88.20
2019-04-28T19:35:14.837Z,88.40
2019-04-28T19:37:43.475Z,87.90
2019-04-28T19:40:12.310Z,88.20
2019-04-28T19:42:40.947Z,88.50
2019-04-28T19:45:12.111Z,87.40
2019-04-28T19:47:41.151Z,87.80
2019-04-28T19:50:10.054Z,87.30
2019-04-28T19:52:40.988Z,87.00
2019-04-28T19:55:10.618Z,87.00
2019-04-28T19:57:49.893Z,87.70
2019-04-28T20:00:27.181Z,88.10
2019-04-28T20:02:56.407Z,88.20
2019-04-28T20:05:25.036Z,88.30
2019-04-28T20:07:53.602Z,88.40
2019-04-28T20:10:22.431Z,88.10
2019-04-28T20:12:51.044Z,88.00
2019-04-28T20:15:19.659Z,88.40
2019-04-28T20:17:48.791Z,88.70
2019-04-28T20:20:17.480Z,89.30
2019-04-28T20:22:46.078Z,89.20
2019-04-28T20:25:14.736Z,89.60
2019-04-28T20:27:43.343Z,89.70
2019-04-28T20:30:12.679Z,89.50
2019-04-28T20:32:46.077Z,90.20
2019-04-28T20:35:17.612Z,90.10
2019-04-28T20:37:57.194Z,89.00
2019-04-28T20:40:30.153Z,87.90
2019-04-28T20:43:02.016Z,87.10
2019-04-28T20:45:30.699Z,84.40
2019-04-28T20:47:59.338Z,82.80
2019-04-28T20:50:28.016Z,82.40
2019-04-28T20:52:56.599Z,81.60
2019-04-28T20:55:25.152Z,81.20
2019-04-28T20:57:54.122Z,81.00
2019-04-28T21:00:22.690Z,80.60
2019-04-28T21:02:51.253Z,79.80
2019-04-28T21:05:39.519Z,80.00
2019-04-28T21:08:08.075Z,79.80
2019-04-28T21:10:38.298Z,77.80
2019-04-28T21:13:07.126Z,77.40
2019-04-28T21:15:35.685Z,76.00
2019-04-28T21:18:04.409Z,73.90
2019-04-28T21:20:33.104Z,72.90
2019-04-28T21:23:01.738Z,72.10
2019-04-28T21:25:30.374Z,71.90
2019-04-28T21:27:58.980Z,71.10
2019-04-28T21:30:27.533Z,71.10
2019-04-28T21:32:56.091Z,70.90
2019-04-28T21:35:24.990Z,70.30
2019-04-28T21:37:53.626Z,70.70
2019-04-28T21:40:22.695Z,70.50
2019-04-28T21:42:53.001Z,71.00
2019-04-28T21:45:39.563Z,69.40
2019-04-28T21:48:08.302Z,70.40
2019-04-28T21:50:36.866Z,68.80
2019-04-28T21:53:05.427Z,68.00
2019-04-28T21:55:34.083Z,67.60
2019-04-28T21:58:02.647Z,66.90
2019-04-28T22:00:41.840Z,66.80
2019-04-28T22:03:10.409Z,66.90
2019-04-28T22:05:38.990Z,66.30
2019-04-28T22:08:07.588Z,66.60
2019-04-28T22:10:36.189Z,65.30
2019-04-28T22:13:04.757Z,64.10
2019-04-28T22:15:33.428Z,64.30
2019-04-28T22:18:02.007Z,64.40
2019-04-28T22:20:30.627Z,64.30
2019-04-28T22:23:00.905Z,64.00
2019-04-28T22:25:29.473Z,64.80
2019-04-28T22:27:58.059Z,64.70
2019-04-28T22:30:26.660Z,63.60
2019-04-28T22:32:55.237Z,63.20
2019-04-28T22:35:23.829Z,62.30
2019-04-28T22:37:52.397Z,61.70
2019-04-28T22:40:20.973Z,62.70
2019-04-28T22:42:49.598Z,63.00
2019-04-28T22:45:18.621Z,63.60
2019-04-28T22:47:47.185Z,63.10
2019-04-28T22:50:40.084Z,63.40
2019-04-28T22:53:08.721Z,63.30
2019-04-28T22:55:38.929Z,63.30
2019-04-28T22:58:15.137Z,64.80
2019-04-28T23:00:47.921Z,64.70
2019-04-28T23:03:18.245Z,64.30
2019-04-28T23:05:46.820Z,64.00
2019-04-28T23:08:15.397Z,63.30
2019-04-28T23:10:44.052Z,64.30
2019-04-28T23:13:12.698Z,63.80
2019-04-28T23:15:41.634Z,63.30
2019-04-28T23:18:10.281Z,63.10
2019-04-28T23:20:40.497Z,63.10
2019-04-28T23:23:10.355Z,63.40
2019-04-28T23:25:38.934Z,63.80
2019-04-28T23:28:07.520Z,63.90
2019-04-28T23:30:39.320Z,64.00
2019-04-28T23:33:07.903Z,63.60
2019-04-28T23:35:36.555Z,64.70
2019-04-28T23:38:05.284Z,64.30
2019-04-28T23:40:35.946Z,65.40
2019-04-28T23:43:07.120Z,65.50
2019-04-28T23:45:35.948Z,65.60
2019-04-28T23:48:04.717Z,65.60
2019-04-28T23:50:51.165Z,68.30
2019-04-28T23:53:21.412Z,67.00
2019-04-28T23:55:50.173Z,66.10
2019-04-28T23:58:18.740Z,67.00
